sensor_id;sensor_type;location;lat;lon;timestamp;temperature;humidity
81842;DHT22;71284;50.918;7.092;2024-03-25T00:01:57;9.60;55.70
81842;DHT22;71284;50.918;7.092;2024-03-25T00:04:24;9.70;54.90
81842;DHT22;71284;50.918;7.092;2024-03-25T00:06:50;9.50;55.40
81842;DHT22;71284;50.918;7.092;2024-03-25T00:09:17;9.30;55.80
81842;DHT22;71284;50.918;7.092;2024-03-25T00:11:43;9.40;56.10
81842;DHT22;71284;50.918;7.092;2024-03-25T00:14:10;9.50;55.90
81842;DHT22;71284;50.918;7.092;2024-03-25T00:16:37;9.60;55.90
81842;DHT22;71284;50.918;7.092;2024-03-25T00:19:03;9.60;55.50
81842;DHT22;71284;50.918;7.092;2024-03-25T00:21:30;9.70;55.60
81842;DHT22;71284;50.918;7.092;2024-03-25T00:23:56;9.60;55.30
81842;DHT22;71284;50.918;7.092;2024-03-25T00:26:23;9.60;55.40
81842;DHT22;71284;50.918;7.092;2024-03-25T00:28:50;9.50;56.00
81842;DHT22;71284;50.918;7.092;2024-03-25T00:31:16;9.50;56.50
81842;DHT22;71284;50.918;7.092;2024-03-25T00:33:43;9.50;55.50
81842;DHT22;71284;50.918;7.092;2024-03-25T00:36:09;9.30;56.50
81842;DHT22;71284;50.918;7.092;2024-03-25T00:38:36;9.30;56.10
81842;DHT22;71284;50.918;7.092;2024-03-25T00:41:03;9.20;56.60
81842;DHT22;71284;50.918;7.092;2024-03-25T00:43:29;9.10;57.10
81842;DHT22;71284;50.918;7.092;2024-03-25T00:45:56;9.10;57.00
81842;DHT22;71284;50.918;7.092;2024-03-25T00:48:22;9.10;56.80
81842;DHT22;71284;50.918;7.092;2024-03-25T00:50:49;9.10;56.70
81842;DHT22;71284;50.918;7.092;2024-03-25T00:53:15;9.10;57.10
81842;DHT22;71284;50.918;7.092;2024-03-25T00:55:42;9.10;57.20
81842;DHT22;71284;50.918;7.092;2024-03-25T00:58:09;9.10;56.90
81842;DHT22;71284;50.918;7.092;2024-03-25T01:00:35;9.10;56.90
81842;DHT22;71284;50.918;7.092;2024-03-25T01:03:02;9.10;57.00
81842;DHT22;71284;50.918;7.092;2024-03-25T01:05:28;9.10;57.60
81842;DHT22;71284;50.918;7.092;2024-03-25T01:07:55;9.00;57.40
81842;DHT22;71284;50.918;7.092;2024-03-25T01:10:22;9.10;57.50
81842;DHT22;71284;50.918;7.092;2024-03-25T01:12:48;9.00;58.10
81842;DHT22;71284;50.918;7.092;2024-03-25T01:15:15;9.00;58.10
81842;DHT22;71284;50.918;7.092;2024-03-25T01:17:41;9.00;58.00
81842;DHT22;71284;50.918;7.092;2024-03-25T01:20:09;9.00;58.40
81842;DHT22;71284;50.918;7.092;2024-03-25T01:22:36;9.00;58.40
81842;DHT22;71284;50.918;7.092;2024-03-25T01:25:03;9.00;58.30
81842;DHT22;71284;50.918;7.092;2024-03-25T01:27:30;9.10;57.90
81842;DHT22;71284;50.918;7.092;2024-03-25T01:29:56;9.00;58.40
81842;DHT22;71284;50.918;7.092;2024-03-25T01:32:23;8.80;59.50
81842;DHT22;71284;50.918;7.092;2024-03-25T01:34:49;8.80;59.10
81842;DHT22;71284;50.918;7.092;2024-03-25T01:37:16;8.80;59.20
81842;DHT22;71284;50.918;7.092;2024-03-25T01:39:43;8.90;58.90
81842;DHT22;71284;50.918;7.092;2024-03-25T01:42:09;9.00;58.70
81842;DHT22;71284;50.918;7.092;2024-03-25T01:44:36;9.00;58.60
81842;DHT22;71284;50.918;7.092;2024-03-25T01:47:02;9.10;58.30
81842;DHT22;71284;50.918;7.092;2024-03-25T01:49:29;9.10;58.40
81842;DHT22;71284;50.918;7.092;2024-03-25T01:51:56;9.10;58.30
81842;DHT22;71284;50.918;7.092;2024-03-25T01:54:22;9.10;58.30
81842;DHT22;71284;50.918;7.092;2024-03-25T01:56:49;9.20;57.80
81842;DHT22;71284;50.918;7.092;2024-03-25T01:59:15;9.10;58.10
81842;DHT22;71284;50.918;7.092;2024-03-25T02:01:43;9.00;58.10
81842;DHT22;71284;50.918;7.092;2024-03-25T02:04:09;8.80;58.20
81842;DHT22;71284;50.918;7.092;2024-03-25T02:06:36;8.70;59.40
81842;DHT22;71284;50.918;7.092;2024-03-25T02:09:02;8.80;58.70
81842;DHT22;71284;50.918;7.092;2024-03-25T02:11:29;8.70;58.80
81842;DHT22;71284;50.918;7.092;2024-03-25T02:13:56;8.70;58.70
81842;DHT22;71284;50.918;7.092;2024-03-25T02:16:22;8.80;58.50
81842;DHT22;71284;50.918;7.092;2024-03-25T02:18:50;8.80;58.10
81842;DHT22;71284;50.918;7.092;2024-03-25T02:21:15;8.60;59.20
81842;DHT22;71284;50.918;7.092;2024-03-25T02:23:42;8.80;58.50
81842;DHT22;71284;50.918;7.092;2024-03-25T02:26:08;8.90;57.90
81842;DHT22;71284;50.918;7.092;2024-03-25T02:28:35;8.90;57.70
81842;DHT22;71284;50.918;7.092;2024-03-25T02:31:02;9.00;57.90
81842;DHT22;71284;50.918;7.092;2024-03-25T02:33:28;9.10;57.60
81842;DHT22;71284;50.918;7.092;2024-03-25T02:35:55;9.00;57.20
81842;DHT22;71284;50.918;7.092;2024-03-25T02:38:21;9.00;57.50
81842;DHT22;71284;50.918;7.092;2024-03-25T02:40:48;8.90;57.80
81842;DHT22;71284;50.918;7.092;2024-03-25T02:43:15;8.90;57.50
81842;DHT22;71284;50.918;7.092;2024-03-25T02:45:41;8.80;58.10
81842;DHT22;71284;50.918;7.092;2024-03-25T02:48:08;8.60;58.20
81842;DHT22;71284;50.918;7.092;2024-03-25T02:50:34;8.80;57.70
81842;DHT22;71284;50.918;7.092;2024-03-25T02:53:01;8.90;57.10
81842;DHT22;71284;50.918;7.092;2024-03-25T02:55:28;8.90;57.40
81842;DHT22;71284;50.918;7.092;2024-03-25T02:57:54;8.90;57.10
81842;DHT22;71284;50.918;7.092;2024-03-25T03:00:21;8.90;57.30
81842;DHT22;71284;50.918;7.092;2024-03-25T03:02:47;8.80;57.30
81842;DHT22;71284;50.918;7.092;2024-03-25T03:05:15;8.90;57.50
81842;DHT22;71284;50.918;7.092;2024-03-25T03:07:40;8.80;57.10
81842;DHT22;71284;50.918;7.092;2024-03-25T03:10:07;8.80;57.30
81842;DHT22;71284;50.918;7.092;2024-03-25T03:12:34;8.60;58.10
81842;DHT22;71284;50.918;7.092;2024-03-25T03:15:01;8.70;57.90
81842;DHT22;71284;50.918;7.092;2024-03-25T03:17:27;8.80;57.20
81842;DHT22;71284;50.918;7.092;2024-03-25T03:19:54;8.70;57.60
81842;DHT22;71284;50.918;7.092;2024-03-25T03:22:20;8.80;57.60
81842;DHT22;71284;50.918;7.092;2024-03-25T03:24:47;8.90;57.20
81842;DHT22;71284;50.918;7.092;2024-03-25T03:27:14;9.10;56.50
81842;DHT22;71284;50.918;7.092;2024-03-25T03:29:40;9.10;56.50
81842;DHT22;71284;50.918;7.092;2024-03-25T03:32:07;8.90;56.90
81842;DHT22;71284;50.918;7.092;2024-03-25T03:34:33;8.90;57.10
81842;DHT22;71284;50.918;7.092;2024-03-25T03:37:00;9.00;56.90
81842;DHT22;71284;50.918;7.092;2024-03-25T03:39:27;9.00;56.70
81842;DHT22;71284;50.918;7.092;2024-03-25T03:41:53;8.80;57.40
81842;DHT22;71284;50.918;7.092;2024-03-25T03:44:20;8.90;56.90
81842;DHT22;71284;50.918;7.092;2024-03-25T03:46:46;8.80;57.00
81842;DHT22;71284;50.918;7.092;2024-03-25T03:49:13;8.70;57.30
81842;DHT22;71284;50.918;7.092;2024-03-25T03:51:40;8.70;57.30
81842;DHT22;71284;50.918;7.092;2024-03-25T03:54:06;8.80;57.10
81842;DHT22;71284;50.918;7.092;2024-03-25T03:56:33;8.70;57.40
81842;DHT22;71284;50.918;7.092;2024-03-25T03:59:00;8.90;57.00
81842;DHT22;71284;50.918;7.092;2024-03-25T04:01:27;8.80;56.60
81842;DHT22;71284;50.918;7.092;2024-03-25T04:03:53;8.80;56.60
81842;DHT22;71284;50.918;7.092;2024-03-25T04:06:20;8.80;56.60
81842;DHT22;71284;50.918;7.092;2024-03-25T04:08:46;8.80;56.60
81842;DHT22;71284;50.918;7.092;2024-03-25T04:11:13;8.70;57.30
81842;DHT22;71284;50.918;7.092;2024-03-25T04:13:40;8.80;56.80
81842;DHT22;71284;50.918;7.092;2024-03-25T04:16:06;8.80;57.00
81842;DHT22;71284;50.918;7.092;2024-03-25T04:18:33;8.70;57.00
81842;DHT22;71284;50.918;7.092;2024-03-25T04:20:59;8.80;57.00
81842;DHT22;71284;50.918;7.092;2024-03-25T04:23:26;8.80;56.70
81842;DHT22;71284;50.918;7.092;2024-03-25T04:25:53;8.80;56.80
81842;DHT22;71284;50.918;7.092;2024-03-25T04:28:19;8.70;56.80
81842;DHT22;71284;50.918;7.092;2024-03-25T04:30:51;8.60;56.70
81842;DHT22;71284;50.918;7.092;2024-03-25T04:33:17;8.60;57.00
81842;DHT22;71284;50.918;7.092;2024-03-25T04:35:44;8.60;56.90
81842;DHT22;71284;50.918;7.092;2024-03-25T04:38:10;8.60;57.00
81842;DHT22;71284;50.918;7.092;2024-03-25T04:40:37;8.50;57.10
81842;DHT22;71284;50.918;7.092;2024-03-25T04:43:04;8.50;57.30
81842;DHT22;71284;50.918;7.092;2024-03-25T04:45:30;8.50;57.30
81842;DHT22;71284;50.918;7.092;2024-03-25T04:47:57;8.50;57.50
81842;DHT22;71284;50.918;7.092;2024-03-25T04:50:23;8.50;57.40
81842;DHT22;71284;50.918;7.092;2024-03-25T04:52:50;8.50;57.20
81842;DHT22;71284;50.918;7.092;2024-03-25T04:55:16;8.40;57.50
81842;DHT22;71284;50.918;7.092;2024-03-25T04:57:43;8.20;58.20
81842;DHT22;71284;50.918;7.092;2024-03-25T05:00:10;8.20;57.80
81842;DHT22;71284;50.918;7.092;2024-03-25T05:02:38;8.10;57.70
81842;DHT22;71284;50.918;7.092;2024-03-25T05:05:04;8.20;58.20
81842;DHT22;71284;50.918;7.092;2024-03-25T05:07:31;8.10;58.40
81842;DHT22;71284;50.918;7.092;2024-03-25T05:09:57;8.00;58.80
81842;DHT22;71284;50.918;7.092;2024-03-25T05:12:24;7.90;59.00
81842;DHT22;71284;50.918;7.092;2024-03-25T05:14:51;7.80;58.60
81842;DHT22;71284;50.918;7.092;2024-03-25T05:17:17;7.80;58.80
81842;DHT22;71284;50.918;7.092;2024-03-25T05:19:44;7.70;58.60
81842;DHT22;71284;50.918;7.092;2024-03-25T05:22:10;7.60;59.10
81842;DHT22;71284;50.918;7.092;2024-03-25T05:24:37;7.50;58.80
81842;DHT22;71284;50.918;7.092;2024-03-25T05:27:04;7.50;58.90
81842;DHT22;71284;50.918;7.092;2024-03-25T05:29:30;7.40;59.60
81842;DHT22;71284;50.918;7.092;2024-03-25T05:31:58;7.40;59.40
81842;DHT22;71284;50.918;7.092;2024-03-25T05:34:24;7.10;60.60
81842;DHT22;71284;50.918;7.092;2024-03-25T05:36:50;7.10;60.40
81842;DHT22;71284;50.918;7.092;2024-03-25T05:39:17;7.20;59.90
81842;DHT22;71284;50.918;7.092;2024-03-25T05:41:43;7.30;59.20
81842;DHT22;71284;50.918;7.092;2024-03-25T05:44:10;7.40;59.00
81842;DHT22;71284;50.918;7.092;2024-03-25T05:46:36;7.30;59.50
81842;DHT22;71284;50.918;7.092;2024-03-25T05:49:03;7.30;59.80
81842;DHT22;71284;50.918;7.092;2024-03-25T05:51:30;7.20;59.70
81842;DHT22;71284;50.918;7.092;2024-03-25T05:53:56;7.40;59.50
81842;DHT22;71284;50.918;7.092;2024-03-25T05:56:23;7.30;59.30
81842;DHT22;71284;50.918;7.092;2024-03-25T05:58:49;7.20;59.30
81842;DHT22;71284;50.918;7.092;2024-03-25T06:01:16;7.00;60.70
81842;DHT22;71284;50.918;7.092;2024-03-25T06:03:42;6.90;60.70
81842;DHT22;71284;50.918;7.092;2024-03-25T06:06:09;6.90;61.40
81842;DHT22;71284;50.918;7.092;2024-03-25T06:08:36;7.00;61.50
81842;DHT22;71284;50.918;7.092;2024-03-25T06:11:02;7.10;60.10
81842;DHT22;71284;50.918;7.092;2024-03-25T06:13:29;7.10;60.30
81842;DHT22;71284;50.918;7.092;2024-03-25T06:15:55;7.10;60.70
81842;DHT22;71284;50.918;7.092;2024-03-25T06:18:22;7.20;60.00
81842;DHT22;71284;50.918;7.092;2024-03-25T06:20:49;7.30;60.00
81842;DHT22;71284;50.918;7.092;2024-03-25T06:23:22;7.10;60.80
81842;DHT22;71284;50.918;7.092;2024-03-25T06:25:48;7.00;61.00
81842;DHT22;71284;50.918;7.092;2024-03-25T06:28:14;7.00;61.70
81842;DHT22;71284;50.918;7.092;2024-03-25T06:30:41;7.10;61.80
81842;DHT22;71284;50.918;7.092;2024-03-25T06:33:13;7.20;61.60
81842;DHT22;71284;50.918;7.092;2024-03-25T06:35:45;7.20;61.60
81842;DHT22;71284;50.918;7.092;2024-03-25T06:38:12;7.30;60.90
81842;DHT22;71284;50.918;7.092;2024-03-25T06:40:39;7.40;61.10
81842;DHT22;71284;50.918;7.092;2024-03-25T06:43:05;7.40;60.80
81842;DHT22;71284;50.918;7.092;2024-03-25T06:45:32;7.50;60.30
81842;DHT22;71284;50.918;7.092;2024-03-25T06:47:58;7.60;60.20
81842;DHT22;71284;50.918;7.092;2024-03-25T06:50:25;7.70;59.90
81842;DHT22;71284;50.918;7.092;2024-03-25T06:52:52;7.70;60.10
81842;DHT22;71284;50.918;7.092;2024-03-25T06:55:18;8.00;59.00
81842;DHT22;71284;50.918;7.092;2024-03-25T06:57:45;8.30;57.00
81842;DHT22;71284;50.918;7.092;2024-03-25T07:00:12;8.50;56.70
81842;DHT22;71284;50.918;7.092;2024-03-25T07:02:39;8.60;56.60
81842;DHT22;71284;50.918;7.092;2024-03-25T07:05:05;8.60;56.70
81842;DHT22;71284;50.918;7.092;2024-03-25T07:07:31;8.70;55.80
81842;DHT22;71284;50.918;7.092;2024-03-25T07:09:58;8.90;55.00
81842;DHT22;71284;50.918;7.092;2024-03-25T07:12:25;8.80;56.80
81842;DHT22;71284;50.918;7.092;2024-03-25T07:14:51;8.90;55.00
81842;DHT22;71284;50.918;7.092;2024-03-25T07:17:18;9.00;54.50
81842;DHT22;71284;50.918;7.092;2024-03-25T07:19:44;9.10;54.00
81842;DHT22;71284;50.918;7.092;2024-03-25T07:22:11;9.20;53.90
81842;DHT22;71284;50.918;7.092;2024-03-25T07:24:38;9.30;53.70
81842;DHT22;71284;50.918;7.092;2024-03-25T07:27:04;9.40;52.90
81842;DHT22;71284;50.918;7.092;2024-03-25T07:29:31;9.50;53.00
81842;DHT22;71284;50.918;7.092;2024-03-25T07:31:57;9.60;52.60
81842;DHT22;71284;50.918;7.092;2024-03-25T07:34:24;9.60;52.60
81842;DHT22;71284;50.918;7.092;2024-03-25T07:36:50;9.70;52.80
81842;DHT22;71284;50.918;7.092;2024-03-25T07:39:17;9.80;52.10
81842;DHT22;71284;50.918;7.092;2024-03-25T07:41:44;10.00;53.20
81842;DHT22;71284;50.918;7.092;2024-03-25T07:44:10;10.30;50.70
81842;DHT22;71284;50.918;7.092;2024-03-25T07:46:37;10.90;49.70
81842;DHT22;71284;50.918;7.092;2024-03-25T07:49:03;11.50;48.10
81842;DHT22;71284;50.918;7.092;2024-03-25T07:51:30;11.50;47.00
81842;DHT22;71284;50.918;7.092;2024-03-25T07:53:57;11.60;47.00
81842;DHT22;71284;50.918;7.092;2024-03-25T07:56:23;11.90;47.60
81842;DHT22;71284;50.918;7.092;2024-03-25T07:58:50;12.60;46.10
81842;DHT22;71284;50.918;7.092;2024-03-25T08:01:16;13.30;43.70
81842;DHT22;71284;50.918;7.092;2024-03-25T08:03:43;14.50;42.10
81842;DHT22;71284;50.918;7.092;2024-03-25T08:06:10;15.70;39.90
81842;DHT22;71284;50.918;7.092;2024-03-25T08:08:36;16.60;37.70
81842;DHT22;71284;50.918;7.092;2024-03-25T08:11:03;17.40;36.70
81842;DHT22;71284;50.918;7.092;2024-03-25T08:13:29;17.30;35.70
81842;DHT22;71284;50.918;7.092;2024-03-25T08:15:56;17.60;35.40
81842;DHT22;71284;50.918;7.092;2024-03-25T08:18:23;17.50;34.80
81842;DHT22;71284;50.918;7.092;2024-03-25T08:20:49;17.00;35.60
81842;DHT22;71284;50.918;7.092;2024-03-25T08:23:16;16.50;37.20
81842;DHT22;71284;50.918;7.092;2024-03-25T08:25:42;16.40;38.00
81842;DHT22;71284;50.918;7.092;2024-03-25T08:28:09;16.50;38.00
81842;DHT22;71284;50.918;7.092;2024-03-25T08:30:36;15.50;38.20
81842;DHT22;71284;50.918;7.092;2024-03-25T08:33:02;14.80;39.10
81842;DHT22;71284;50.918;7.092;2024-03-25T08:35:29;14.40;40.10
81842;DHT22;71284;50.918;7.092;2024-03-25T08:37:55;14.40;39.70
81842;DHT22;71284;50.918;7.092;2024-03-25T08:40:22;14.30;39.50
81842;DHT22;71284;50.918;7.092;2024-03-25T08:42:49;14.90;38.60
81842;DHT22;71284;50.918;7.092;2024-03-25T08:45:15;15.00;39.70
81842;DHT22;71284;50.918;7.092;2024-03-25T08:47:42;15.20;38.70
81842;DHT22;71284;50.918;7.092;2024-03-25T08:50:09;15.20;38.10
81842;DHT22;71284;50.918;7.092;2024-03-25T08:52:35;15.30;37.50
81842;DHT22;71284;50.918;7.092;2024-03-25T08:55:02;15.30;38.20
81842;DHT22;71284;50.918;7.092;2024-03-25T08:57:28;15.60;37.80
81842;DHT22;71284;50.918;7.092;2024-03-25T08:59:55;16.50;35.40
81842;DHT22;71284;50.918;7.092;2024-03-25T09:02:22;17.00;34.40
81842;DHT22;71284;50.918;7.092;2024-03-25T09:04:48;17.40;34.40
81842;DHT22;71284;50.918;7.092;2024-03-25T09:07:15;17.00;34.40
81842;DHT22;71284;50.918;7.092;2024-03-25T09:09:41;16.80;35.40
81842;DHT22;71284;50.918;7.092;2024-03-25T09:12:14;16.30;36.80
81842;DHT22;71284;50.918;7.092;2024-03-25T09:14:40;16.10;36.70
81842;DHT22;71284;50.918;7.092;2024-03-25T09:17:07;15.40;35.30
81842;DHT22;71284;50.918;7.092;2024-03-25T09:19:34;14.90;36.90
81842;DHT22;71284;50.918;7.092;2024-03-25T09:22:00;14.40;37.90
81842;DHT22;71284;50.918;7.092;2024-03-25T09:24:27;14.20;37.30
81842;DHT22;71284;50.918;7.092;2024-03-25T09:26:54;14.00;39.80
81842;DHT22;71284;50.918;7.092;2024-03-25T09:29:20;14.20;38.90
81842;DHT22;71284;50.918;7.092;2024-03-25T09:31:47;14.20;38.40
81842;DHT22;71284;50.918;7.092;2024-03-25T09:34:13;14.10;38.50
81842;DHT22;71284;50.918;7.092;2024-03-25T09:36:40;14.20;38.80
81842;DHT22;71284;50.918;7.092;2024-03-25T09:39:06;13.30;41.90
81842;DHT22;71284;50.918;7.092;2024-03-25T09:41:34;13.20;40.50
81842;DHT22;71284;50.918;7.092;2024-03-25T09:44:00;13.10;40.60
81842;DHT22;71284;50.918;7.092;2024-03-25T09:46:26;13.00;39.90
81842;DHT22;71284;50.918;7.092;2024-03-25T09:48:53;13.10;40.70
81842;DHT22;71284;50.918;7.092;2024-03-25T09:51:20;13.00;39.40
81842;DHT22;71284;50.918;7.092;2024-03-25T09:53:46;12.50;40.20
81842;DHT22;71284;50.918;7.092;2024-03-25T09:56:13;12.90;41.90
81842;DHT22;71284;50.918;7.092;2024-03-25T09:58:39;13.20;39.90
81842;DHT22;71284;50.918;7.092;2024-03-25T10:01:06;13.30;39.90
81842;DHT22;71284;50.918;7.092;2024-03-25T10:03:32;13.30;40.40
81842;DHT22;71284;50.918;7.092;2024-03-25T10:05:59;13.30;37.90
81842;DHT22;71284;50.918;7.092;2024-03-25T10:08:26;13.40;37.90
81842;DHT22;71284;50.918;7.092;2024-03-25T10:10:53;13.40;38.50
81842;DHT22;71284;50.918;7.092;2024-03-25T10:13:19;13.70;38.90
81842;DHT22;71284;50.918;7.092;2024-03-25T10:15:47;13.90;38.90
81842;DHT22;71284;50.918;7.092;2024-03-25T10:18:12;14.40;38.20
81842;DHT22;71284;50.918;7.092;2024-03-25T10:20:47;14.70;37.60
81842;DHT22;71284;50.918;7.092;2024-03-25T10:23:05;14.70;36.60
81842;DHT22;71284;50.918;7.092;2024-03-25T10:25:32;14.30;37.70
81842;DHT22;71284;50.918;7.092;2024-03-25T10:28:00;14.20;36.80
81842;DHT22;71284;50.918;7.092;2024-03-25T10:30:26;14.10;35.80
81842;DHT22;71284;50.918;7.092;2024-03-25T10:33:01;14.20;37.20
81842;DHT22;71284;50.918;7.092;2024-03-25T10:35:27;14.20;37.20
81842;DHT22;71284;50.918;7.092;2024-03-25T10:37:58;14.10;36.50
81842;DHT22;71284;50.918;7.092;2024-03-25T10:40:24;14.10;37.20
81842;DHT22;71284;50.918;7.092;2024-03-25T10:42:49;14.20;37.10
81842;DHT22;71284;50.918;7.092;2024-03-25T10:45:16;14.20;36.00
81842;DHT22;71284;50.918;7.092;2024-03-25T10:47:42;14.30;36.20
81842;DHT22;71284;50.918;7.092;2024-03-25T10:50:09;14.60;37.70
81842;DHT22;71284;50.918;7.092;2024-03-25T10:52:36;14.70;36.00
81842;DHT22;71284;50.918;7.092;2024-03-25T10:55:02;15.00;35.10
81842;DHT22;71284;50.918;7.092;2024-03-25T10:57:28;15.30;34.60
81842;DHT22;71284;50.918;7.092;2024-03-25T10:59:55;15.70;35.10
81842;DHT22;71284;50.918;7.092;2024-03-25T11:02:22;16.10;34.50
81842;DHT22;71284;50.918;7.092;2024-03-25T11:04:48;16.40;32.80
81842;DHT22;71284;50.918;7.092;2024-03-25T11:07:15;16.90;32.60
81842;DHT22;71284;50.918;7.092;2024-03-25T11:09:42;17.20;31.80
81842;DHT22;71284;50.918;7.092;2024-03-25T11:12:10;17.00;29.90
81842;DHT22;71284;50.918;7.092;2024-03-25T11:14:37;16.40;29.80
81842;DHT22;71284;50.918;7.092;2024-03-25T11:17:13;16.20;31.00
81842;DHT22;71284;50.918;7.092;2024-03-25T11:19:30;16.40;29.50
81842;DHT22;71284;50.918;7.092;2024-03-25T11:22:13;16.80;30.40
81842;DHT22;71284;50.918;7.092;2024-03-25T11:24:43;17.00;29.80
81842;DHT22;71284;50.918;7.092;2024-03-25T11:27:06;16.90;28.70
81842;DHT22;71284;50.918;7.092;2024-03-25T11:29:34;16.90;29.80
81842;DHT22;71284;50.918;7.092;2024-03-25T11:32:03;16.50;30.50
81842;DHT22;71284;50.918;7.092;2024-03-25T11:34:30;16.80;30.30
81842;DHT22;71284;50.918;7.092;2024-03-25T11:36:56;17.10;30.30
81842;DHT22;71284;50.918;7.092;2024-03-25T11:39:23;17.40;30.70
81842;DHT22;71284;50.918;7.092;2024-03-25T11:41:49;17.40;28.20
81842;DHT22;71284;50.918;7.092;2024-03-25T11:44:16;16.80;29.10
81842;DHT22;71284;50.918;7.092;2024-03-25T11:46:43;16.90;28.10
81842;DHT22;71284;50.918;7.092;2024-03-25T11:49:14;16.90;28.70
81842;DHT22;71284;50.918;7.092;2024-03-25T11:51:39;17.10;29.60
81842;DHT22;71284;50.918;7.092;2024-03-25T11:54:06;17.60;29.10
81842;DHT22;71284;50.918;7.092;2024-03-25T11:56:32;17.50;27.60
81842;DHT22;71284;50.918;7.092;2024-03-25T11:58:59;17.60;27.60
81842;DHT22;71284;50.918;7.092;2024-03-25T12:01:26;18.00;27.60
81842;DHT22;71284;50.918;7.092;2024-03-25T12:03:52;18.20;28.50
81842;DHT22;71284;50.918;7.092;2024-03-25T12:06:19;18.20;27.70
81842;DHT22;71284;50.918;7.092;2024-03-25T12:08:45;17.90;26.70
81842;DHT22;71284;50.918;7.092;2024-03-25T12:11:27;18.20;27.20
81842;DHT22;71284;50.918;7.092;2024-03-25T12:13:53;18.20;27.00
81842;DHT22;71284;50.918;7.092;2024-03-25T12:16:20;17.20;27.00
81842;DHT22;71284;50.918;7.092;2024-03-25T12:18:46;17.70;27.00
81842;DHT22;71284;50.918;7.092;2024-03-25T12:21:13;17.90;28.50
81842;DHT22;71284;50.918;7.092;2024-03-25T12:23:40;17.60;27.20
81842;DHT22;71284;50.918;7.092;2024-03-25T12:26:06;17.50;27.00
81842;DHT22;71284;50.918;7.092;2024-03-25T12:28:33;17.20;28.60
81842;DHT22;71284;50.918;7.092;2024-03-25T12:31:00;17.60;27.10
81842;DHT22;71284;50.918;7.092;2024-03-25T12:33:27;17.60;28.60
81842;DHT22;71284;50.918;7.092;2024-03-25T12:35:53;17.40;27.60
81842;DHT22;71284;50.918;7.092;2024-03-25T12:38:26;17.20;27.70
81842;DHT22;71284;50.918;7.092;2024-03-25T12:40:53;17.30;27.90
81842;DHT22;71284;50.918;7.092;2024-03-25T12:43:19;17.10;27.90
81842;DHT22;71284;50.918;7.092;2024-03-25T12:45:46;17.00;27.70
81842;DHT22;71284;50.918;7.092;2024-03-25T12:48:13;17.00;27.60
81842;DHT22;71284;50.918;7.092;2024-03-25T12:50:39;17.10;27.40
81842;DHT22;71284;50.918;7.092;2024-03-25T12:53:06;17.50;26.30
81842;DHT22;71284;50.918;7.092;2024-03-25T12:55:32;17.30;28.10
81842;DHT22;71284;50.918;7.092;2024-03-25T12:57:59;17.80;27.10
81842;DHT22;71284;50.918;7.092;2024-03-25T13:00:25;17.70;26.40
81842;DHT22;71284;50.918;7.092;2024-03-25T13:02:52;17.80;26.80
81842;DHT22;71284;50.918;7.092;2024-03-25T13:05:19;18.00;26.40
81842;DHT22;71284;50.918;7.092;2024-03-25T13:07:45;18.10;25.70
81842;DHT22;71284;50.918;7.092;2024-03-25T13:10:12;18.30;25.40
81842;DHT22;71284;50.918;7.092;2024-03-25T13:12:38;18.10;25.40
81842;DHT22;71284;50.918;7.092;2024-03-25T13:15:05;18.20;25.60
81842;DHT22;71284;50.918;7.092;2024-03-25T13:17:32;18.20;26.30
81842;DHT22;71284;50.918;7.092;2024-03-25T13:19:59;18.60;25.50
81842;DHT22;71284;50.918;7.092;2024-03-25T13:22:25;19.50;24.60
81842;DHT22;71284;50.918;7.092;2024-03-25T13:24:52;19.90;25.00
81842;DHT22;71284;50.918;7.092;2024-03-25T13:27:19;19.40;23.80
81842;DHT22;71284;50.918;7.092;2024-03-25T13:29:45;19.90;23.70
81842;DHT22;71284;50.918;7.092;2024-03-25T13:32:12;19.90;23.60
81842;DHT22;71284;50.918;7.092;2024-03-25T13:34:38;19.30;23.60
81842;DHT22;71284;50.918;7.092;2024-03-25T13:37:05;19.30;24.10
81842;DHT22;71284;50.918;7.092;2024-03-25T13:39:32;19.20;24.40
81842;DHT22;71284;50.918;7.092;2024-03-25T13:41:58;19.50;24.10
81842;DHT22;71284;50.918;7.092;2024-03-25T13:44:25;20.00;24.10
81842;DHT22;71284;50.918;7.092;2024-03-25T13:46:51;20.50;23.00
81842;DHT22;71284;50.918;7.092;2024-03-25T13:49:18;20.90;22.30
81842;DHT22;71284;50.918;7.092;2024-03-25T13:51:44;21.80;21.40
81842;DHT22;71284;50.918;7.092;2024-03-25T13:54:11;22.60;20.70
81842;DHT22;71284;50.918;7.092;2024-03-25T13:56:38;22.80;20.40
81842;DHT22;71284;50.918;7.092;2024-03-25T13:59:04;23.10;20.70
81842;DHT22;71284;50.918;7.092;2024-03-25T14:01:31;23.80;19.90
81842;DHT22;71284;50.918;7.092;2024-03-25T14:03:57;23.70;19.80
81842;DHT22;71284;50.918;7.092;2024-03-25T14:06:26;23.80;19.00
81842;DHT22;71284;50.918;7.092;2024-03-25T14:08:51;23.60;19.30
81842;DHT22;71284;50.918;7.092;2024-03-25T14:11:17;23.10;19.60
81842;DHT22;71284;50.918;7.092;2024-03-25T14:13:44;22.20;20.20
81842;DHT22;71284;50.918;7.092;2024-03-25T14:16:10;21.70;21.00
81842;DHT22;71284;50.918;7.092;2024-03-25T14:18:37;21.50;21.70
81842;DHT22;71284;50.918;7.092;2024-03-25T14:21:04;20.70;22.20
81842;DHT22;71284;50.918;7.092;2024-03-25T14:23:30;19.30;24.30
81842;DHT22;71284;50.918;7.092;2024-03-25T14:25:57;18.60;24.30
81842;DHT22;71284;50.918;7.092;2024-03-25T14:28:23;17.90;25.50
81842;DHT22;71284;50.918;7.092;2024-03-25T14:30:50;17.40;26.40
81842;DHT22;71284;50.918;7.092;2024-03-25T14:33:16;17.20;26.40
81842;DHT22;71284;50.918;7.092;2024-03-25T14:35:43;17.70;26.80
81842;DHT22;71284;50.918;7.092;2024-03-25T14:38:10;17.90;24.90
81842;DHT22;71284;50.918;7.092;2024-03-25T14:40:38;18.10;24.60
81842;DHT22;71284;50.918;7.092;2024-03-25T14:43:04;18.10;24.80
81842;DHT22;71284;50.918;7.092;2024-03-25T14:45:30;18.00;25.60
81842;DHT22;71284;50.918;7.092;2024-03-25T14:47:57;17.50;26.10
81842;DHT22;71284;50.918;7.092;2024-03-25T14:50:24;17.50;24.70
81842;DHT22;71284;50.918;7.092;2024-03-25T14:52:50;17.40;26.00
81842;DHT22;71284;50.918;7.092;2024-03-25T14:55:17;17.40;25.60
81842;DHT22;71284;50.918;7.092;2024-03-25T14:57:43;16.90;25.80
81842;DHT22;71284;50.918;7.092;2024-03-25T15:00:10;17.10;26.80
81842;DHT22;71284;50.918;7.092;2024-03-25T15:02:37;17.10;26.70
81842;DHT22;71284;50.918;7.092;2024-03-25T15:05:04;17.60;27.40
81842;DHT22;71284;50.918;7.092;2024-03-25T15:07:30;18.10;26.30
81842;DHT22;71284;50.918;7.092;2024-03-25T15:09:57;18.20;25.10
81842;DHT22;71284;50.918;7.092;2024-03-25T15:12:24;18.10;24.70
81842;DHT22;71284;50.918;7.092;2024-03-25T15:14:50;18.10;24.90
81842;DHT22;71284;50.918;7.092;2024-03-25T15:17:17;18.40;25.20
81842;DHT22;71284;50.918;7.092;2024-03-25T15:19:43;18.50;26.50
81842;DHT22;71284;50.918;7.092;2024-03-25T15:22:10;18.20;24.60
81842;DHT22;71284;50.918;7.092;2024-03-25T15:24:36;18.30;24.80
81842;DHT22;71284;50.918;7.092;2024-03-25T15:27:03;18.90;24.70
81842;DHT22;71284;50.918;7.092;2024-03-25T15:29:30;19.60;23.10
81842;DHT22;71284;50.918;7.092;2024-03-25T15:31:56;19.80;23.10
81842;DHT22;71284;50.918;7.092;2024-03-25T15:34:23;20.20;24.00